createdAt,value
2023-06-24T00:00:42.393Z,5.32
2023-06-24T00:03:48.337Z,5.62
2023-06-24T00:06:53.690Z,5.85
2023-06-24T00:09:57.119Z,5.82
2023-06-24T00:13:02.740Z,5.68
2023-06-24T00:16:07.723Z,5.87
2023-06-24T00:19:10.622Z,5.62
2023-06-24T00:22:15.673Z,6.35
2023-06-24T00:25:19.712Z,5.97
2023-06-24T00:28:23.746Z,5.90
2023-06-24T00:31:26.833Z,6.53
2023-06-24T00:34:30.216Z,5.68
2023-06-24T00:37:33.450Z,5.85
2023-06-24T00:40:36.863Z,6.45
2023-06-24T00:43:40.489Z,6.62
2023-06-24T00:46:43.951Z,6.50
2023-06-24T00:49:46.905Z,6.75
2023-06-24T00:52:50.520Z,7.32
2023-06-24T00:55:55.675Z,5.90
2023-06-24T00:58:59.862Z,5.90
2023-06-24T01:02:03.197Z,5.80
2023-06-24T01:05:12.342Z,5.62
2023-06-24T01:08:16.745Z,5.68
2023-06-24T01:11:21.776Z,5.78
2023-06-24T01:14:25.080Z,5.97
2023-06-24T01:18:04.075Z,5.43
2023-06-24T01:21:46.295Z,5.00
2023-06-24T01:25:16.183Z,4.80
2023-06-24T01:29:09.590Z,5.50
2023-06-24T01:32:17.481Z,4.87
2023-06-24T01:35:27.878Z,5.07
2023-06-24T01:38:45.493Z,5.20
2023-06-24T01:41:57.753Z,5.05
2023-06-24T01:45:01.454Z,4.97
2023-06-24T01:48:12.467Z,4.97
2023-06-24T01:51:19.891Z,4.68
2023-06-24T01:54:23.967Z,4.87
2023-06-24T01:57:29.089Z,4.10
2023-06-24T02:00:32.810Z,4.50
2023-06-24T02:03:37.392Z,4.17
2023-06-24T02:06:42.002Z,4.53
2023-06-24T02:09:46.952Z,4.45
2023-06-24T02:12:52.296Z,4.70
2023-06-24T02:15:56.297Z,4.50
2023-06-24T02:19:00.186Z,4.20
2023-06-24T02:22:03.578Z,3.47
2023-06-24T02:25:07.753Z,3.70
2023-06-24T02:28:11.110Z,3.37
2023-06-24T02:31:14.796Z,3.85
2023-06-24T02:34:17.939Z,3.67
2023-06-24T02:37:21.173Z,3.20
2023-06-24T02:40:24.033Z,3.72
2023-06-24T02:43:27.126Z,3.78
2023-06-24T02:46:32.010Z,3.90
2023-06-24T02:49:37.775Z,3.85
2023-06-24T02:52:41.677Z,3.92
2023-06-24T02:55:45.725Z,4.37
2023-06-24T02:58:49.521Z,4.55
2023-06-24T03:01:53.170Z,4.18
2023-06-24T03:04:58.445Z,4.15
2023-06-24T03:08:02.020Z,4.18
2023-06-24T03:14:10.930Z,3.55
2023-06-24T03:20:18.184Z,3.90
2023-06-24T03:23:21.198Z,4.37
2023-06-24T03:26:25.069Z,3.95
2023-06-24T03:29:28.310Z,4.65
2023-06-24T03:32:31.934Z,5.37
2023-06-24T03:35:35.729Z,4.15
2023-06-24T03:38:39.726Z,3.70
2023-06-24T03:41:43.079Z,3.70
2023-06-24T03:44:48.574Z,3.40
2023-06-24T03:47:51.736Z,3.75
2023-06-24T03:50:55.637Z,3.92
2023-06-24T03:53:59.225Z,3.65
2023-06-24T03:57:03.970Z,3.80
2023-06-24T04:00:16.991Z,3.20
2023-06-24T04:03:22.398Z,3.30
2023-06-24T04:06:25.358Z,2.78
2023-06-24T04:09:30.928Z,2.83
2023-06-24T04:12:34.668Z,3.00
2023-06-24T04:15:38.107Z,3.22
2023-06-24T04:18:41.923Z,2.83
2023-06-24T04:21:45.230Z,2.25
2023-06-24T04:24:49.088Z,2.15
2023-06-24T04:27:53.687Z,1.92
2023-06-24T04:30:57.527Z,2.08
2023-06-24T04:34:00.846Z,2.30
2023-06-24T04:37:04.097Z,1.90
2023-06-24T04:40:08.637Z,1.90
2023-06-24T04:43:11.689Z,2.22
2023-06-24T04:46:14.898Z,2.37
2023-06-24T04:49:17.847Z,2.45
2023-06-24T04:52:22.429Z,1.90
2023-06-24T04:55:26.739Z,1.37
2023-06-24T04:58:46.423Z,1.45
2023-06-24T05:01:49.196Z,1.33
2023-06-24T05:04:53.534Z,1.50
2023-06-24T05:07:56.532Z,1.40
2023-06-24T05:14:31.883Z,1.33
2023-06-24T05:17:35.276Z,1.23
2023-06-24T05:20:38.401Z,1.17
2023-06-24T05:23:41.825Z,0.98
2023-06-24T05:26:46.452Z,1.30
2023-06-24T05:29:49.707Z,0.88
2023-06-24T05:32:52.873Z,0.90
2023-06-24T05:35:56.094Z,0.70
2023-06-24T05:38:59.058Z,0.60
2023-06-24T05:42:02.334Z,0.60
2023-06-24T05:45:07.364Z,0.60
2023-06-24T05:48:10.754Z,0.70
2023-06-24T05:51:15.652Z,0.52
2023-06-24T05:54:19.048Z,0.65
2023-06-24T05:57:22.343Z,0.43
2023-06-24T06:00:25.698Z,0.60
2023-06-24T06:03:28.980Z,0.70
2023-06-24T06:06:32.169Z,0.60
2023-06-24T06:09:35.379Z,0.75
2023-06-24T06:12:38.358Z,0.70
2023-06-24T06:15:41.752Z,0.40
2023-06-24T06:18:45.018Z,0.55
2023-06-24T06:21:48.356Z,0.62
2023-06-24T06:24:51.342Z,0.65
2023-06-24T06:27:54.503Z,0.60
2023-06-24T06:30:58.356Z,0.80
2023-06-24T06:34:03.144Z,1.00
2023-06-24T06:37:06.521Z,0.52
2023-06-24T06:40:10.743Z,0.80
2023-06-24T06:43:13.731Z,0.70
2023-06-24T06:46:16.965Z,0.90
2023-06-24T06:49:19.948Z,0.70
2023-06-24T06:52:23.216Z,0.75
2023-06-24T06:55:26.148Z,0.85
2023-06-24T06:58:29.354Z,0.90
2023-06-24T07:01:32.581Z,0.65
2023-06-24T07:04:35.876Z,0.90
2023-06-24T07:07:39.653Z,0.80
2023-06-24T07:10:42.981Z,0.90
2023-06-24T07:13:47.228Z,0.88
2023-06-24T07:16:51.230Z,0.80
2023-06-24T07:19:54.006Z,0.90
2023-06-24T07:22:58.262Z,0.85
2023-06-24T07:26:03.896Z,0.65
2023-06-24T07:29:10.076Z,0.80
2023-06-24T07:32:14.627Z,0.80
2023-06-24T07:35:17.965Z,0.85
2023-06-24T07:38:21.000Z,0.70
2023-06-24T07:41:24.345Z,0.70
2023-06-24T07:44:27.300Z,1.05
2023-06-24T07:47:30.579Z,0.60
2023-06-24T07:50:34.170Z,0.70
2023-06-24T07:53:37.476Z,0.80
2023-06-24T07:56:40.451Z,0.68
2023-06-24T07:59:44.323Z,0.70
2023-06-24T08:02:47.418Z,0.90
2023-06-24T08:05:51.301Z,0.88
2023-06-24T08:08:55.674Z,0.88
2023-06-24T08:11:58.883Z,0.70
2023-06-24T08:15:02.603Z,0.77
2023-06-24T08:18:05.670Z,0.95
2023-06-24T08:21:08.634Z,0.75
2023-06-24T08:24:11.717Z,0.73
2023-06-24T08:27:14.653Z,0.70
2023-06-24T08:30:17.960Z,0.82
2023-06-24T08:33:20.922Z,0.80
2023-06-24T08:36:26.790Z,0.88
2023-06-24T08:39:29.743Z,1.00
2023-06-24T08:42:33.035Z,0.73
2023-06-24T08:45:36.440Z,0.85
2023-06-24T08:48:44.074Z,0.90
2023-06-24T08:51:48.493Z,0.93
2023-06-24T08:57:55.162Z,0.93
2023-06-24T09:00:58.686Z,0.95
2023-06-24T09:04:02.278Z,1.10
2023-06-24T09:07:08.010Z,0.88
2023-06-24T09:10:11.186Z,0.77
2023-06-24T09:13:14.395Z,1.00
2023-06-24T09:16:17.541Z,0.90
2023-06-24T09:19:24.502Z,0.93
2023-06-24T09:22:32.132Z,0.98
2023-06-24T09:25:35.548Z,0.80
2023-06-24T09:28:38.665Z,0.88
2023-06-24T09:31:53.908Z,1.00
2023-06-24T09:34:59.239Z,1.00
2023-06-24T09:38:04.069Z,1.15
2023-06-24T09:41:13.850Z,0.93
2023-06-24T09:44:22.287Z,0.80
2023-06-24T09:47:26.668Z,1.00
2023-06-24T09:50:32.945Z,1.00
2023-06-24T09:53:36.790Z,1.10
2023-06-24T09:57:01.234Z,1.00
2023-06-24T10:00:04.867Z,0.85
2023-06-24T10:03:09.036Z,0.98
2023-06-24T10:06:12.480Z,1.00
2023-06-24T10:09:18.224Z,1.15
2023-06-24T10:12:21.589Z,1.10
2023-06-24T10:15:24.862Z,1.55
2023-06-24T10:18:38.104Z,1.23
2023-06-24T10:22:08.518Z,1.45
2023-06-24T10:25:12.669Z,1.17
2023-06-24T10:28:15.939Z,1.17
2023-06-24T10:31:19.445Z,0.90
2023-06-24T10:34:25.405Z,1.00
2023-06-24T10:37:33.425Z,1.20
2023-06-24T10:40:43.570Z,1.17
2023-06-24T10:43:46.794Z,1.10
2023-06-24T10:46:56.255Z,1.00
2023-06-24T10:49:59.606Z,1.23
2023-06-24T10:53:02.770Z,1.10
2023-06-24T10:56:06.266Z,1.20
2023-06-24T10:59:09.269Z,1.25
2023-06-24T11:02:15.469Z,1.00
2023-06-24T11:05:19.295Z,1.10
2023-06-24T11:08:22.681Z,0.90
2023-06-24T11:11:27.600Z,1.27
2023-06-24T11:14:31.103Z,0.98
2023-06-24T11:17:36.098Z,1.20
2023-06-24T11:20:41.294Z,1.30
2023-06-24T11:23:44.626Z,1.00
2023-06-24T11:26:47.889Z,1.40
2023-06-24T11:29:53.429Z,1.48
2023-06-24T11:32:56.749Z,1.20
2023-06-24T11:35:59.657Z,1.15
2023-06-24T11:39:02.846Z,1.17
2023-06-24T11:42:09.328Z,1.10
2023-06-24T11:45:16.436Z,1.50
2023-06-24T11:48:21.692Z,1.10
2023-06-24T11:51:25.099Z,1.30
2023-06-24T11:54:28.130Z,1.30
2023-06-24T11:57:54.860Z,1.33
2023-06-24T12:00:58.356Z,2.22
2023-06-24T12:04:03.717Z,1.62
2023-06-24T12:07:07.003Z,1.30
2023-06-24T12:10:10.916Z,1.60
2023-06-24T12:13:13.903Z,1.30
2023-06-24T12:16:17.358Z,1.75
2023-06-24T12:19:22.064Z,1.90
2023-06-24T12:22:25.248Z,1.70
2023-06-24T12:25:28.227Z,2.10
2023-06-24T12:28:31.630Z,2.08
2023-06-24T12:31:34.805Z,1.60
2023-06-24T12:34:38.209Z,2.00
2023-06-24T12:37:41.446Z,2.20
2023-06-24T12:40:44.651Z,2.10
2023-06-24T12:43:55.975Z,2.19
2023-06-24T12:46:59.184Z,2.03
2023-06-24T12:50:02.215Z,2.22
2023-06-24T12:53:05.666Z,2.62
2023-06-24T12:56:09.991Z,2.45
2023-06-24T12:59:14.215Z,2.10
2023-06-24T13:02:17.315Z,2.60
2023-06-24T13:05:21.467Z,2.20
2023-06-24T13:08:24.381Z,2.60
2023-06-24T13:11:27.624Z,2.47
2023-06-24T13:14:30.598Z,2.40
2023-06-24T13:17:34.075Z,2.90
2023-06-24T13:20:37.424Z,2.40
2023-06-24T13:23:41.269Z,2.33
2023-06-24T13:26:44.504Z,2.50
2023-06-24T13:29:47.789Z,2.37
2023-06-24T13:32:50.824Z,2.50
2023-06-24T13:35:54.130Z,2.70
2023-06-24T13:38:58.046Z,2.72
2023-06-24T13:42:02.187Z,2.78
2023-06-24T13:45:05.639Z,2.65
2023-06-24T13:48:09.081Z,2.97
2023-06-24T13:51:12.144Z,2.80
2023-06-24T13:54:15.460Z,3.15
2023-06-24T13:57:18.418Z,2.92
2023-06-24T14:00:21.597Z,2.70
2023-06-24T14:03:24.994Z,2.85
2023-06-24T14:06:27.980Z,2.70
2023-06-24T14:09:31.291Z,2.60
2023-06-24T14:12:34.366Z,2.60
2023-06-24T14:15:37.711Z,2.80
2023-06-24T14:18:40.848Z,2.80
2023-06-24T14:21:45.321Z,2.47
2023-06-24T14:27:52.734Z,2.53
2023-06-24T14:30:56.682Z,2.62
2023-06-24T14:34:00.035Z,2.50
2023-06-24T14:37:03.021Z,2.72
2023-06-24T14:40:07.419Z,2.97
2023-06-24T14:46:13.371Z,2.67
2023-06-24T14:49:16.380Z,3.20
2023-06-24T14:52:19.898Z,3.30
2023-06-24T14:55:22.883Z,3.08
2023-06-24T14:58:26.086Z,3.40
2023-06-24T15:01:29.086Z,3.22
2023-06-24T15:04:32.383Z,3.00
2023-06-24T15:07:39.460Z,2.78
2023-06-24T15:10:43.455Z,3.10
2023-06-24T15:13:46.390Z,3.35
2023-06-24T15:16:51.907Z,3.40
2023-06-24T15:19:55.853Z,3.17
2023-06-24T15:22:59.088Z,3.45
2023-06-24T15:26:02.004Z,3.20
2023-06-24T15:29:05.247Z,3.22
2023-06-24T15:32:08.366Z,2.65
2023-06-24T15:35:11.622Z,2.97
2023-06-24T15:38:14.553Z,3.40
2023-06-24T15:41:17.850Z,2.90
2023-06-24T15:44:20.861Z,2.90
2023-06-24T15:47:24.181Z,3.12
2023-06-24T15:50:27.247Z,2.97
2023-06-24T15:53:32.639Z,2.80
2023-06-24T15:56:37.308Z,2.83
2023-06-24T15:59:42.075Z,3.03
2023-06-24T16:02:45.095Z,2.50
2023-06-24T16:05:49.679Z,2.35
2023-06-24T16:08:53.132Z,2.67
2023-06-24T16:11:56.450Z,2.85
2023-06-24T16:14:59.389Z,2.85
2023-06-24T16:18:02.859Z,2.77
2023-06-24T16:21:05.931Z,2.30
2023-06-24T16:24:09.424Z,3.10
2023-06-24T16:27:12.400Z,3.67
2023-06-24T16:30:15.700Z,2.70
2023-06-24T16:33:18.700Z,2.62
2023-06-24T16:36:21.982Z,3.40
2023-06-24T16:39:24.956Z,3.45
2023-06-24T16:42:28.267Z,3.33
2023-06-24T16:45:31.585Z,3.53
2023-06-24T16:48:34.800Z,3.62
2023-06-24T16:51:38.015Z,3.47
2023-06-24T16:54:41.160Z,4.07
2023-06-24T16:57:44.189Z,3.60
2023-06-24T17:00:47.472Z,3.50
2023-06-24T17:03:50.628Z,3.57
2023-06-24T17:06:53.884Z,3.40
2023-06-24T17:09:56.963Z,3.60
2023-06-24T17:13:00.261Z,4.62
2023-06-24T17:16:03.371Z,3.80
2023-06-24T17:19:07.604Z,4.10
2023-06-24T17:22:10.559Z,3.85
2023-06-24T17:25:14.013Z,3.40
2023-06-24T17:28:16.985Z,3.58
2023-06-24T17:31:20.293Z,4.03
2023-06-24T17:34:23.400Z,3.65
2023-06-24T17:37:26.599Z,3.60
2023-06-24T17:40:29.728Z,4.30
2023-06-24T17:43:32.954Z,3.67
2023-06-24T17:46:35.963Z,3.87
2023-06-24T17:49:39.449Z,3.90
2023-06-24T17:52:42.340Z,3.78
2023-06-24T17:55:45.758Z,4.25
2023-06-24T17:58:49.532Z,4.10
2023-06-24T18:01:52.865Z,3.92
2023-06-24T18:04:56.205Z,3.67
2023-06-24T18:07:59.725Z,3.85
2023-06-24T18:11:02.988Z,3.65
2023-06-24T18:14:05.986Z,4.10
2023-06-24T18:17:09.259Z,6.37
2023-06-24T18:20:12.857Z,4.20
2023-06-24T18:23:16.162Z,4.60
2023-06-24T18:26:19.099Z,7.18
2023-06-24T18:29:22.370Z,4.32
2023-06-24T18:32:25.338Z,4.45
2023-06-24T18:35:28.642Z,4.30
2023-06-24T18:38:31.617Z,4.65
2023-06-24T18:41:34.878Z,6.43
2023-06-24T18:44:38.327Z,4.15
2023-06-24T18:47:41.612Z,4.53
2023-06-24T18:50:44.646Z,3.80
2023-06-24T18:53:48.666Z,3.70
2023-06-24T18:56:51.677Z,4.90
2023-06-24T18:59:54.887Z,3.87
2023-06-24T19:02:57.964Z,4.05
2023-06-24T19:06:01.436Z,4.00
2023-06-24T19:09:04.535Z,4.28
2023-06-24T19:12:07.986Z,4.20
2023-06-24T19:15:11.336Z,3.83
2023-06-24T19:18:14.854Z,5.15
2023-06-24T19:21:19.115Z,5.82
2023-06-24T19:27:26.040Z,3.80
2023-06-24T19:30:29.308Z,6.70
2023-06-24T19:33:32.322Z,4.72
2023-06-24T19:36:35.719Z,4.45
2023-06-24T19:39:38.680Z,4.60
2023-06-24T19:42:42.012Z,4.07
2023-06-24T19:45:45.196Z,3.55
2023-06-24T19:48:48.366Z,3.97
2023-06-24T19:51:51.323Z,4.03
2023-06-24T19:54:54.679Z,3.92
2023-06-24T19:57:57.629Z,4.00
2023-06-24T20:01:01.694Z,3.92
2023-06-24T20:04:07.104Z,4.07
2023-06-24T20:07:10.160Z,3.80
2023-06-24T20:10:14.342Z,3.92
2023-06-24T20:13:17.407Z,4.03
2023-06-24T20:16:20.892Z,5.53
2023-06-24T20:19:24.450Z,3.90
2023-06-24T20:22:30.711Z,3.92
2023-06-24T20:25:34.753Z,4.50
2023-06-24T20:28:38.111Z,3.83
2023-06-24T20:31:41.222Z,3.67
2023-06-24T20:34:44.543Z,4.07
2023-06-24T20:37:47.683Z,3.80
2023-06-24T20:40:50.984Z,4.37
2023-06-24T20:43:54.777Z,3.85
2023-06-24T20:46:58.032Z,4.53
2023-06-24T20:50:01.491Z,3.83
2023-06-24T20:53:06.136Z,4.70
2023-06-24T20:56:11.752Z,4.10
2023-06-24T20:59:15.024Z,3.80
2023-06-24T21:02:18.759Z,4.43
2023-06-24T21:05:22.126Z,3.80
2023-06-24T21:08:25.049Z,4.15
2023-06-24T21:11:28.278Z,4.00
2023-06-24T21:14:31.183Z,4.32
2023-06-24T21:17:34.548Z,4.00
2023-06-24T21:20:37.776Z,4.37
2023-06-24T21:23:41.112Z,3.72
2023-06-24T21:26:44.125Z,4.00
2023-06-24T21:29:47.528Z,3.70
2023-06-24T21:32:50.561Z,4.25
2023-06-24T21:36:00.475Z,4.85
2023-06-24T21:39:04.609Z,4.15
2023-06-24T21:42:08.186Z,4.28
2023-06-24T21:45:11.916Z,4.37
2023-06-24T21:48:16.381Z,4.65
2023-06-24T21:51:19.408Z,4.55
2023-06-24T21:54:23.069Z,3.53
2023-06-24T21:57:25.814Z,4.50
2023-06-24T22:00:28.752Z,4.72
2023-06-24T22:03:31.955Z,4.70
2023-06-24T22:06:34.662Z,4.12
2023-06-24T22:09:37.616Z,4.07
2023-06-24T22:12:40.392Z,4.75
2023-06-24T22:15:43.553Z,4.47
2023-06-24T22:18:46.682Z,4.32
2023-06-24T22:21:49.894Z,4.20
2023-06-24T22:24:57.824Z,4.78
2023-06-24T22:28:01.189Z,5.10
2023-06-24T22:31:04.797Z,4.53
2023-06-24T22:34:08.109Z,4.87
2023-06-24T22:37:11.355Z,5.18
2023-06-24T22:40:14.970Z,5.07
2023-06-24T22:43:17.912Z,4.57
2023-06-24T22:46:21.260Z,5.53
2023-06-24T22:49:24.451Z,4.53
2023-06-24T22:52:27.755Z,5.05
2023-06-24T22:55:30.866Z,4.32
2023-06-24T22:58:34.065Z,4.72
2023-06-24T23:01:37.148Z,4.47
2023-06-24T23:04:40.885Z,4.60
2023-06-24T23:07:44.004Z,4.30
2023-06-24T23:10:47.640Z,4.60
2023-06-24T23:13:52.081Z,4.03
2023-06-24T23:20:00.150Z,4.75
2023-06-24T23:23:04.874Z,4.43
2023-06-24T23:26:15.167Z,4.45
2023-06-24T23:29:22.403Z,4.45
2023-06-24T23:32:31.878Z,4.87
2023-06-24T23:35:36.717Z,4.68
2023-06-24T23:41:44.207Z,4.47
2023-06-24T23:44:47.923Z,4.20
2023-06-24T23:47:51.366Z,4.82
2023-06-24T23:50:54.398Z,4.20
2023-06-24T23:53:57.982Z,4.72
2023-06-24T23:57:01.006Z,4.22
